weather.gov     
National Weather Service

Terminal Aerodrome Forecast
NWS Homepage
This page is being discontinued on March 12, 2014.
The same data is available at this site. Please update your bookmarks.
Thank you, and we apologize for the inconvenience.
Please send an email to SR-SRH.Webmaster@noaa.gov with any concerns.


Current Version
Previous Version:    01  02  03  04  05  06  07  08  09  10  11  12  13  14  
[Printable]
149
FTUS41 KBOX 280930 AAA
TAFHYA
TAF AMD
KHYA 280930Z 2810/2906 34006KT P6SM OVC007
     FM281100 34007KT 3SM -SN BR OVC012
     FM281300 35008KT 3SM -RASN OVC025
     FM281600 34012G21KT 5SM -RA OVC025
     FM281800 35010G20KT P6SM SCT025 BKN070
     FM282000 35009KT P6SM BKN250=


149
FTUS41 KBOX 280930 AAA
TAFHYA
TAF AMD
KHYA 280930Z 2810/2906 34006KT P6SM OVC007
     FM281100 34007KT 3SM -SN BR OVC012
     FM281300 35008KT 3SM -RASN OVC025
     FM281600 34012G21KT 5SM -RA OVC025
     FM281800 35010G20KT P6SM SCT025 BKN070
     FM282000 35009KT P6SM BKN250=




U.S. Dept. of Commerce
NOAA National Weather Service
1325 East West Highway
Silver Spring, MD 20910
E-mail: w-nws.webmaster@noaa.gov
Page last modified: May 16, 2007
NATIONAL WEATHER SERVICE: for Safety, for Work, for Fun - FOR LIFE